Grete Maersk — OYCY2 — position and weather

sailwx.info

Track history (hours):
 
Tides and Currents Weather Stations Pressure Air Temp Water Temp Dewpoint Dewpoint Depression Visibility Wind Speed Wind Dir Waves Ship Positions

Grete Maersk

Last reported at 2014-Aug-26 20:31 UTC. Time now 2014-Sep-01 07:42 UTC.
Position N 23°49' E 118°27'.

MMSI: 218824136.

Date/timePositionNaut miles runAvg speedWind from/ knotsBaromVisibWave heightAir tempDewpointWater temp
2014-Aug-26 20:31N 23°49' E 118°27'1919.1
2014-Aug-26 19:32N 23°40' E 118°09'2218.3
2014-Aug-26 18:18N 23°32' E 117°46'1718.5
2014-Aug-26 17:23N 23°22' E 117°31'1720.3
2014-Aug-26 16:33N 23°07' E 117°23'2020.0
2014-Aug-26 15:32N 22°56' E 117°04'167 4.7
2014-Aug-25 04:10N 22°19' E 114°07'7 7.8
2014-Aug-25 03:19N 22°13' E 114°10'19 0.4
2014-Aug-23 03:33N 22°14' E 113°49'1111.4
2014-Aug-23 02:33N 22°25' E 113°46'1413.9
2014-Aug-23 01:33N 22°38' E 113°41'1 0.1
2014-Aug-22 06:31N 22°37' E 113°42'1313.0
2014-Aug-22 05:33N 22°25' E 113°46'1111.2
2014-Aug-22 04:34N 22°14' E 113°49'1111.4
2014-Aug-22 03:33N 22°03' E 113°51'  
2014-Aug-16 23:28N 01°16' E 104°06'1313.8
2014-Aug-16 22:33N 01°12' E 103°54'  
Track history (hours):
 
Tides and Currents Weather Stations Pressure Air Temp Water Temp Dewpoint Dewpoint Depression Visibility Wind Speed Wind Dir Waves Ship Positions

Grete Maersk

Last reported at 2014-Aug-26 20:31 UTC. Time now 2014-Sep-01 07:42 UTC.
Position N 23°49' E 118°27'.

MMSI: 218824136.

Date/timePositionNaut miles runAvg speedWind from/ knotsBaromVisibWave heightAir tempDewpointWater temp
2014-Aug-26 20:31N 23°49' E 118°27'1919.1
2014-Aug-26 19:32N 23°40' E 118°09'2218.3
2014-Aug-26 18:18N 23°32' E 117°46'1718.5
2014-Aug-26 17:23N 23°22' E 117°31'1720.3
2014-Aug-26 16:33N 23°07' E 117°23'2020.0
2014-Aug-26 15:32N 22°56' E 117°04'167 4.7
2014-Aug-25 04:10N 22°19' E 114°07'7 7.8
2014-Aug-25 03:19N 22°13' E 114°10'19 0.4
2014-Aug-23 03:33N 22°14' E 113°49'1111.4
2014-Aug-23 02:33N 22°25' E 113°46'1413.9
2014-Aug-23 01:33N 22°38' E 113°41'1 0.1
2014-Aug-22 06:31N 22°37' E 113°42'1313.0
2014-Aug-22 05:33N 22°25' E 113°46'1111.2
2014-Aug-22 04:34N 22°14' E 113°49'1111.4
2014-Aug-22 03:33N 22°03' E 113°51'  
2014-Aug-16 23:28N 01°16' E 104°06'1313.8
2014-Aug-16 22:33N 01°12' E 103°54'  

Dump ship's entire track history